Main page
METAR-TAF:

METAR-TAF

Airports :

Centralia Municipal Airport

Centralia, Illinois, United States

latitude: 38-30-53N, longitude: 089-05-32W, elevation: 535 ft

Current weather observation

The report was made 21 minutes ago, at 10:55 UTC
Wind 7 mph from the South/Southwest
Temperature 39°F
Humidity 75%
Pressure 30.11 in. Hg
Visibility: 10 miles
Scattered clouds at a height of 6000 ft
Overcast at a height of 7000 ft

METAR: KENL 231055Z AUTO 20006KT 10SM SCT060 OVC070 04/00 A3011 RMK AO2 T00380000

Time: 05:16 (11:16 UTC)


TAF: missing

Weather observations and forecasts of more than 4000 airports (METAR and TAF reports).

The available stations are represented by yellow and red dots on the map.

Hover mouse over dot to see the name of the station.

Then click to see weather observations and forecasts.

To change the map : click on the green buttons with a black cross to zoom in, on the green button with a dash to zoom out, or on the green arrows for adjacent maps.


METAR-TAF: